Time;durP1;ratioP1;P1;durP2;ratioP2;P2;SDS_P1;SDS_P2;PMS_P1;PMS_P2;Temp;Humidity;BMP_temperature;BMP_pressure;BME280_temperature;BME280_humidity;BME280_pressure;Samples;Min_cycle;Max_cycle;Signal;HPM_P1;HPM_P2
2022/04/05 00:00:40;;;;;;;11.93;9.23;;;9.40;99.90;;;7.62;100.00;99330.72;4989809;28;20046;-76
2022/04/05 00:03:07;;;;;;;12.05;8.85;;;9.40;99.90;;;7.61;100.00;99337.16;4990665;28;20046;-76
2022/04/05 00:05:34;;;;;;;11.43;9.02;;;9.40;99.90;;;7.63;100.00;99335.94;4990953;28;20116;-76
2022/04/05 00:08:01;;;;;;;15.75;12.00;;;9.40;99.90;;;7.66;100.00;99329.28;4990315;28;20132;-76
2022/04/05 00:10:29;;;;;;;16.33;12.85;;;9.40;99.90;;;7.69;100.00;99328.03;4989640;28;20137;-77
2022/04/05 00:12:58;;;;;;;16.45;13.25;;;9.50;99.90;;;7.70;100.00;99330.56;4989684;28;20054;-76
2022/04/05 00:15:25;;;;;;;17.17;14.00;;;9.50;99.90;;;7.73;100.00;99330.19;4990628;28;20054;-76
2022/04/05 00:17:53;;;;;;;19.92;15.57;;;9.50;99.90;;;7.73;100.00;99337.44;4990176;28;20124;-76
2022/04/05 00:20:21;;;;;;;22.95;16.65;;;9.50;99.90;;;7.73;100.00;99330.19;4989830;28;20561;-76
2022/04/05 00:22:48;;;;;;;18.25;14.65;;;9.50;99.90;;;7.76;100.00;99329.78;4990031;28;20045;-76
2022/04/05 00:25:15;;;;;;;17.30;14.10;;;9.60;99.90;;;7.81;100.00;99332.75;4990189;28;20042;-76
2022/04/05 00:27:42;;;;;;;16.23;13.20;;;9.60;99.90;;;7.82;100.00;99329.00;4989499;28;20625;-76
2022/04/05 00:30:12;;;;;;;17.50;14.50;;;9.60;99.90;;;7.83;100.00;99335.25;4987950;28;20046;-76
2022/04/05 00:32:39;;;;;;;23.60;16.45;;;9.60;99.90;;;7.86;100.00;99332.16;4989156;28;20046;-76
2022/04/05 00:35:10;;;;;;;19.42;15.07;;;9.60;99.90;;;7.87;100.00;99331.13;4990098;28;20141;-76
2022/04/05 00:37:38;;;;;;;23.02;17.80;;;9.60;99.90;;;7.91;100.00;99331.56;4989898;28;20561;-76
2022/04/05 00:40:07;;;;;;;23.05;17.63;;;9.60;99.90;;;7.89;100.00;99326.34;4989166;28;20042;-76
2022/04/05 00:42:36;;;;;;;23.55;18.08;;;9.70;99.90;;;7.91;100.00;99331.56;4989395;28;20038;-76
2022/04/05 00:45:05;;;;;;;20.33;16.00;;;9.70;99.90;;;7.92;100.00;99333.22;4990266;28;20046;-76
2022/04/05 00:47:33;;;;;;;20.40;16.08;;;9.70;99.90;;;7.91;100.00;99321.56;4989258;28;20497;-76
2022/04/05 00:50:01;;;;;;;21.35;15.85;;;9.70;99.90;;;7.93;100.00;99329.50;4989266;28;20606;-76
2022/04/05 00:52:30;;;;;;;25.20;18.50;;;9.80;99.90;;;7.97;100.00;99322.66;4989206;28;20049;-77
2022/04/05 00:55:00;;;;;;;20.40;15.60;;;9.80;99.90;;;7.99;100.00;99329.53;4989871;28;20125;-76
2022/04/05 00:57:30;;;;;;;19.63;15.75;;;9.70;99.90;;;8.01;100.00;99326.63;4989248;28;20276;-76
2022/04/05 01:00:02;;;;;;;19.08;15.20;;;9.90;99.90;;;7.98;100.00;99333.28;4989096;28;20049;-76
2022/04/05 01:02:36;;;;;;;18.67;15.43;;;9.80;99.90;;;8.01;100.00;99332.06;4989315;28;20153;-76
2022/04/05 01:05:05;;;;;;;19.30;14.75;;;9.80;99.90;;;8.02;100.00;99334.56;4990150;28;20070;-76
2022/04/05 01:07:35;;;;;;;19.63;15.63;;;9.80;99.90;;;8.06;100.00;99332.31;4989557;28;20060;-76
2022/04/05 01:10:07;;;;;;;19.27;14.43;;;9.80;99.90;;;8.06;100.00;99332.31;4988833;28;20137;-76
2022/04/05 01:12:34;;;;;;;17.77;14.57;;;9.80;99.90;;;8.09;100.00;99333.78;4988995;28;20511;-76
2022/04/05 01:15:02;;;;;;;18.05;13.77;;;9.80;99.90;;;8.10;100.00;99335.47;4989614;28;20050;-76
2022/04/05 01:17:30;;;;;;;21.67;15.45;;;9.90;99.90;;;8.10;100.00;99341.72;4989570;28;20447;-76
2022/04/05 01:19:57;;;;;;;19.17;14.38;;;9.90;99.90;;;8.10;100.00;99338.19;4988834;28;20053;-76
2022/04/05 01:22:24;;;;;;;18.75;15.27;;;9.90;99.90;;;8.10;100.00;99343.59;4989584;28;20038;-76
2022/04/05 01:24:53;;;;;;;20.02;15.48;;;9.90;99.90;;;8.11;100.00;99348.81;4988236;28;20054;-76
2022/04/05 01:27:20;;;;;;;23.98;17.52;;;9.90;99.90;;;8.11;100.00;99343.41;4988820;28;20053;-76
2022/04/05 01:29:49;;;;;;;21.02;15.52;;;9.90;99.90;;;8.13;100.00;99344.03;4976993;23;20101;-88
2022/04/05 01:32:16;;;;;;;23.27;17.77;;;9.90;99.90;;;8.17;100.00;99348.03;4958647;28;20501;-88
2022/04/05 01:34:44;;;;;;;26.10;19.73;;;10.00;99.90;;;8.14;100.00;99340.28;4968638;28;20134;-87
2022/04/05 01:37:13;;;;;;;26.08;20.40;;;10.00;99.90;;;8.19;100.00;99350.53;4969037;28;20484;-88
2022/04/05 01:39:42;;;;;;;23.98;18.23;;;10.00;99.90;;;8.19;100.00;99345.94;4970187;28;20043;-87
2022/04/05 01:42:12;;;;;;;27.48;19.48;;;10.00;99.90;;;8.22;100.00;99350.13;4968963;28;20042;-88
2022/04/05 01:44:40;;;;;;;22.88;17.13;;;10.00;99.90;;;8.22;100.00;99356.41;4970663;28;20673;-88
2022/04/05 01:47:11;;;;;;;22.60;17.17;;;10.00;99.90;;;8.21;100.00;99349.28;4968860;28;20632;-88
2022/04/05 01:49:40;;;;;;;21.35;17.40;;;10.00;99.90;;;8.25;100.00;99340.78;4969973;28;20090;-88
2022/04/05 01:52:09;;;;;;;18.02;14.38;;;10.10;99.90;;;8.28;100.00;99343.06;4969598;28;20035;-87
2022/04/05 01:54:36;;;;;;;19.15;13.70;;;10.10;99.90;;;8.30;100.00;99346.41;4970293;28;20047;-88
2022/04/05 01:57:04;;;;;;;19.60;14.55;;;10.10;99.90;;;8.34;100.00;99353.97;4968461;28;20543;-88
2022/04/05 01:59:36;;;;;;;16.20;12.48;;;10.10;99.90;;;8.34;100.00;99345.84;4969822;28;20122;-88
2022/04/05 02:02:05;;;;;;;15.18;12.30;;;10.10;99.90;;;8.33;100.00;99346.03;4969596;28;20054;-87
2022/04/05 02:04:33;;;;;;;15.45;12.23;;;10.10;99.90;;;8.34;100.00;99351.25;4971317;28;20089;-88
2022/04/05 02:07:00;;;;;;;15.73;12.48;;;10.20;99.90;;;8.34;100.00;99353.13;4972877;28;20046;-88
2022/04/05 02:09:28;;;;;;;17.40;13.68;;;10.20;99.90;;;8.39;100.00;99359.63;4973685;28;20499;-87
2022/04/05 02:11:55;;;;;;;14.70;11.68;;;10.20;99.90;;;8.44;100.00;99359.06;4972288;28;20566;-89
2022/04/05 02:14:46;;;;;;;14.07;10.85;;;10.20;99.90;;;8.43;100.00;99368.22;4972772;28;20055;-88
2022/04/05 02:17:20;;;;;;;12.57;10.07;;;10.30;99.90;;;8.44;100.00;99363.66;4972155;28;20472;-89
2022/04/05 02:19:49;;;;;;;11.63;9.27;;;10.30;99.90;;;8.43;100.00;99362.81;4971485;28;20110;-88
2022/04/05 02:22:19;;;;;;;11.93;9.10;;;10.30;99.90;;;8.45;100.00;99376.16;4968729;28;20054;-87
2022/04/05 02:24:55;;;;;;;11.27;8.65;;;10.30;99.90;;;8.46;100.00;99378.69;4972847;28;20104;-88
2022/04/05 02:27:23;;;;;;;11.32;8.15;;;10.30;99.90;;;8.47;100.00;99374.91;4972165;28;20050;-88
2022/04/05 02:29:52;;;;;;;11.13;8.30;;;10.30;99.90;;;8.44;100.00;99374.50;4971664;28;20047;-88
2022/04/05 02:32:22;;;;;;;;;;;10.30;99.90;;;8.40;100.00;99384.88;4972540;28;20583;-88
2022/04/05 02:34:50;;;;;;;9.35;7.18;;;10.30;99.90;;;8.37;100.00;99393.41;4972367;28;20032;-88
2022/04/05 02:37:18;;;;;;;7.85;5.75;;;10.30;99.90;;;8.32;100.00;99398.56;4972036;28;20053;-89
2022/04/05 02:39:49;;;;;;;7.00;5.10;;;10.30;99.90;;;8.31;100.00;99397.72;4970918;28;20471;-89
2022/04/05 02:42:17;;;;;;;6.75;4.15;;;10.30;99.90;;;8.30;100.00;99406.91;4987580;28;20047;-88
2022/04/05 02:44:46;;;;;;;5.82;4.57;;;10.30;99.90;;;8.28;100.00;99403.56;4971486;28;20053;-88
2022/04/05 02:47:16;;;;;;;6.38;4.65;;;10.30;99.90;;;8.26;100.00;99402.91;4972042;28;20692;-88
2022/04/05 02:49:44;;;;;;;6.90;5.20;;;10.20;99.90;;;8.23;100.00;99398.72;4971019;28;20054;-88
2022/04/05 02:52:19;;;;;;;7.03;4.93;;;10.20;99.90;;;8.18;100.00;99389.50;4971728;28;20059;-89
2022/04/05 02:54:58;;;;;;;6.88;5.00;;;10.20;99.90;;;8.17;100.00;99390.56;4971243;28;20143;-89
2022/04/05 02:57:28;;;;;;;7.07;5.22;;;10.20;99.90;;;8.16;100.00;99397.81;4971126;28;20127;-87
2022/04/05 02:59:58;;;;;;;8.20;4.60;;;10.10;99.90;;;8.15;100.00;99407.00;4970495;28;20050;-89
2022/04/05 03:02:27;;;;;;;6.53;4.28;;;10.10;99.90;;;8.13;100.00;99402.78;4971639;28;20059;-88
2022/04/05 03:04:56;;;;;;;5.57;3.70;;;10.10;99.90;;;8.08;100.00;99403.41;4971615;28;20038;-89
2022/04/05 03:07:24;;;;;;;4.43;3.10;;;10.10;99.90;;;8.09;100.00;99406.94;4971486;28;20049;-88
2022/04/05 03:09:51;;;;;;;3.78;2.38;;;10.10;99.90;;;8.03;100.00;99405.84;4970416;28;20053;-88
2022/04/05 03:12:20;;;;;;;3.20;1.80;;;10.00;99.90;;;8.03;100.00;99416.69;4970489;28;20058;-87
2022/04/05 03:14:50;;;;;;;3.65;2.00;;;10.00;99.90;;;8.01;100.00;99416.03;4971446;28;20113;-88
2022/04/05 03:17:21;;;;;;;3.60;1.88;;;10.00;99.90;;;7.99;100.00;99415.41;4970440;28;20050;-87
2022/04/05 03:19:52;;;;;;;3.03;1.48;;;10.00;99.90;;;7.99;100.00;99423.53;4970418;28;20153;-88
2022/04/05 03:22:20;;;;;;;2.67;1.40;;;10.00;99.90;;;7.95;100.00;99417.66;4971245;28;20073;-88
2022/04/05 03:24:47;;;;;;;3.67;1.40;;;10.00;99.90;;;7.92;100.00;99415.34;4971162;28;20053;-87
2022/04/05 03:27:15;;;;;;;4.50;1.38;;;10.00;99.90;;;7.88;100.00;99421.34;4970840;28;20127;-88
2022/04/05 03:29:42;;;;;;;2.95;1.27;;;9.90;99.90;;;7.88;100.00;99421.34;4970185;28;20490;-88
2022/04/05 03:32:11;;;;;;;2.72;1.50;;;9.90;99.90;;;7.86;100.00;99410.69;4970572;28;20047;-88
2022/04/05 03:34:40;;;;;;;2.70;1.50;;;9.90;99.90;;;7.85;100.00;99416.34;4970929;28;20047;-88
2022/04/05 03:37:09;;;;;;;2.97;1.50;;;9.90;99.90;;;7.88;100.00;99415.91;4971054;28;20207;-89
2022/04/05 03:39:39;;;;;;;3.15;1.50;;;9.90;99.90;;;7.86;100.00;99420.69;4970800;28;20471;-86
2022/04/05 03:42:08;;;;;;;2.72;1.65;;;9.90;99.90;;;7.85;100.00;99416.34;4970178;28;20039;-88
2022/04/05 03:44:35;;;;;;;2.65;1.50;;;9.90;99.90;;;7.86;100.00;99420.69;4970785;28;20046;-87
2022/04/05 03:47:03;;;;;;;3.03;1.65;;;9.90;99.90;;;7.82;100.00;99423.81;4970654;28;20744;-87
2022/04/05 03:49:32;;;;;;;3.30;1.67;;;9.90;99.90;;;7.77;100.00;99420.00;4970876;28;20057;-88
2022/04/05 03:52:02;;;;;;;3.13;1.58;;;9.80;99.90;;;7.79;100.00;99426.91;4969508;28;20460;-88
2022/04/05 03:54:32;;;;;;;3.97;1.70;;;9.80;99.90;;;7.77;100.00;99422.72;4970908;28;20051;-88
2022/04/05 03:57:05;;;;;;;4.10;1.80;;;9.80;99.90;;;7.76;100.00;99427.28;4969817;28;20171;-88
2022/04/05 03:59:34;;;;;;;3.10;1.60;;;9.80;99.90;;;7.76;100.00;99421.84;4970618;28;20074;-87
2022/04/05 04:02:02;;;;;;;3.55;1.70;;;9.80;99.90;;;7.71;100.00;99420.75;4969552;28;20471;-88
2022/04/05 04:04:29;;;;;;;3.03;1.58;;;9.80;99.90;;;7.68;100.00;99413.88;4970598;28;20039;-87
2022/04/05 04:06:57;;;;;;;3.45;1.77;;;9.80;99.90;;;7.66;100.00;99415.09;4970404;28;20499;-88
2022/04/05 04:09:26;;;;;;;2.90;1.73;;;9.80;99.90;;;7.62;100.00;99422.78;4970132;28;20055;-82
2022/04/05 04:11:56;;;;;;;3.00;1.50;;;9.80;99.90;;;7.61;100.00;99418.38;4967662;28;20050;-78
2022/04/05 04:14:23;;;;;;;2.75;1.60;;;9.80;99.90;;;7.61;100.00;99426.50;4969506;28;20512;-79
2022/04/05 04:16:51;;;;;;;2.97;1.67;;;9.80;99.90;;;7.62;100.00;99420.91;4969940;28;20508;-78
2022/04/05 04:19:20;;;;;;;7.45;2.42;;;9.80;99.90;;;7.63;100.00;99427.13;4969482;28;20145;-78
2022/04/05 04:21:47;;;;;;;4.05;2.13;;;9.80;99.90;;;7.61;100.00;99423.78;4969370;28;20050;-78
2022/04/05 04:24:14;;;;;;;4.20;2.30;;;9.80;99.90;;;7.63;100.00;99425.28;4969903;28;20050;-78
2022/04/05 04:26:41;;;;;;;4.43;2.20;;;9.70;99.90;;;7.66;100.00;99429.47;4969697;28;20047;-79
2022/04/05 04:29:10;;;;;;;4.82;3.00;;;9.70;99.90;;;7.66;100.00;99424.06;4970863;28;20169;-79
2022/04/05 04:31:38;;;;;;;5.65;3.50;;;9.70;99.90;;;7.65;100.00;99425.06;4968821;28;20046;-79
2022/04/05 04:34:05;;;;;;;5.60;3.45;;;9.70;99.90;;;7.63;100.00;99421.72;4970963;28;20050;-79
2022/04/05 04:36:32;;;;;;;5.68;3.78;;;9.80;99.90;;;7.62;100.00;99420.91;4971125;28;20479;-78
2022/04/05 04:39:00;;;;;;;6.25;3.88;;;9.70;99.90;;;7.65;100.00;99422.38;4970854;28;20050;-80
2022/04/05 04:41:27;;;;;;;7.13;4.03;;;9.80;99.90;;;7.69;100.00;99430.94;4957779;28;20035;-80
2022/04/05 04:43:54;;;;;;;6.95;4.65;;;9.80;99.90;;;7.70;100.00;99428.06;4967917;28;20043;-80
2022/04/05 04:46:23;;;;;;;6.80;4.03;;;9.80;99.90;;;7.69;100.00;99426.41;4970260;28;20134;-80
2022/04/05 04:48:50;;;;;;;6.40;4.50;;;9.80;99.90;;;7.72;100.00;99426.00;4970418;28;20066;-80
2022/04/05 04:51:17;;;;;;;6.78;4.57;;;9.80;99.90;;;7.69;100.00;99426.41;4970278;28;20400;-80
2022/04/05 04:53:44;;;;;;;8.25;4.55;;;9.70;99.90;;;7.66;100.00;99417.81;4970575;28;20542;-80
2022/04/05 04:56:12;;;;;;;7.18;4.75;;;9.70;99.90;;;7.64;100.00;99424.25;4970831;28;20474;-80
2022/04/05 04:58:42;;;;;;;9.70;5.53;;;9.80;99.90;;;7.67;100.00;99433.00;4970378;28;20034;-79
2022/04/05 05:01:10;;;;;;;8.73;5.30;;;9.80;99.90;;;7.69;100.00;99429.09;4970318;28;20051;-80
2022/04/05 05:03:38;;;;;;;7.80;5.18;;;9.70;99.90;;;7.65;100.00;99425.06;4969407;28;20101;-81
2022/04/05 05:06:06;;;;;;;9.02;5.57;;;9.80;99.90;;;7.69;100.00;99420.13;4970728;28;20670;-81
2022/04/05 05:08:34;;;;;;;8.98;6.10;;;9.70;99.90;;;7.65;100.00;99422.38;4970596;28;20046;-82
2022/04/05 05:11:01;;;;;;;9.23;5.95;;;9.80;99.90;;;7.63;100.00;99419.88;4969000;28;20047;-87
2022/04/05 05:13:31;;;;;;;10.15;5.80;;;9.80;99.90;;;7.63;100.00;99421.72;4970213;28;20137;-81
2022/04/05 05:15:58;;;;;;;10.18;6.55;;;9.80;99.90;;;7.61;100.00;99416.50;4969398;28;20847;-82
2022/04/05 05:18:26;;;;;;;9.93;6.55;;;9.80;99.90;;;7.62;100.00;99422.78;4970652;28;20546;-82
2022/04/05 05:20:55;;;;;;;10.25;6.85;;;9.80;99.90;;;7.65;100.00;99416.94;4968870;28;20130;-81
2022/04/05 05:23:22;;;;;;;11.57;6.97;;;9.80;99.90;;;7.71;100.00;99420.75;4951260;28;20098;-82
2022/04/05 05:25:49;;;;;;;15.98;8.25;;;9.80;99.90;;;7.69;100.00;99418.28;4951217;28;20675;-81
2022/04/05 05:28:17;;;;;;;13.27;7.88;;;9.80;99.90;;;7.71;100.00;99421.63;4969674;28;20051;-81
2022/04/05 05:30:44;;;;;;;16.25;8.77;;;9.80;99.90;;;7.69;100.00;99420.97;4966815;28;20061;-83
2022/04/05 05:33:11;;;;;;;14.77;9.27;;;9.80;99.90;;;7.71;100.00;99423.47;4969746;28;20056;-81
2022/04/05 05:35:39;;;;;;;16.80;9.80;;;9.80;99.90;;;7.74;100.00;99434.75;4970499;28;20045;-81
2022/04/05 05:38:07;;;;;;;18.27;10.93;;;9.80;99.90;;;7.73;100.00;99430.38;4970032;28;20149;-81
2022/04/05 05:40:35;;;;;;;18.42;10.52;;;9.80;99.90;;;7.75;100.00;99436.44;4972538;28;20117;-81
2022/04/05 05:43:04;;;;;;;18.85;11.10;;;9.80;99.90;;;7.77;100.00;99423.53;4973577;28;20606;-82
2022/04/05 05:45:36;;;;;;;18.27;11.23;;;9.80;99.90;;;7.77;100.00;99433.56;4974348;28;20126;-82
2022/04/05 05:48:04;;;;;;;19.98;10.98;;;9.80;99.90;;;7.77;100.00;99423.53;4973924;28;20520;-81
2022/04/05 05:50:32;;;;;;;20.10;11.48;;;9.80;99.90;;;7.81;100.00;99432.13;4973555;28;20054;-81
2022/04/05 05:53:00;;;;;;;18.85;11.07;;;9.80;99.90;;;7.82;100.00;99429.22;4973264;28;20030;-81
2022/04/05 05:55:28;;;;;;;20.45;12.07;;;9.80;99.90;;;7.83;100.00;99428.19;4979457;28;20043;-81
2022/04/05 05:57:56;;;;;;;20.38;11.20;;;9.80;99.90;;;7.83;100.00;99424.66;4978118;28;20060;-81
2022/04/05 06:00:24;;;;;;;20.48;12.70;;;9.90;99.90;;;7.86;100.00;99431.53;4969381;28;20474;-81
2022/04/05 06:02:55;;;;;;;22.30;12.18;;;9.90;99.90;;;7.88;100.00;99429.47;4971319;28;20555;-81
2022/04/05 06:05:23;;;;;;;19.63;11.52;;;9.90;99.90;;;7.91;100.00;99434.50;4969725;28;20039;-81
2022/04/05 06:07:50;;;;;;;20.80;11.95;;;9.90;99.90;;;7.93;100.00;99427.84;4969880;28;20038;-83
2022/04/05 06:10:20;;;;;;;22.17;13.18;;;9.90;99.90;;;7.95;100.00;99436.63;4967162;28;20067;-82
2022/04/05 06:12:51;;;;;;;22.70;13.00;;;9.90;99.90;;;7.97;100.00;99426.44;4961389;28;20035;-82
2022/04/05 06:15:20;;;;;;;19.90;12.70;;;9.90;99.90;;;8.03;100.00;99431.09;4967894;28;20101;-84
2022/04/05 06:17:49;;;;;;;19.70;12.60;;;10.00;99.90;;;8.09;100.00;99432.19;4952678;28;20428;-84
2022/04/05 06:20:19;;;;;;;26.42;15.88;;;10.00;99.90;;;8.17;100.00;99432.03;4964217;28;20051;-87
2022/04/05 06:22:48;;;;;;;24.70;15.82;;;10.00;99.90;;;8.27;100.00;99428.16;4952556;28;20534;-87
2022/04/05 06:25:21;;;;;;;21.58;15.00;;;10.10;99.90;;;8.34;100.00;99434.44;4983993;28;20582;-87
2022/04/05 06:27:50;;;;;;;21.10;14.38;;;10.10;99.90;;;8.37;100.00;99428.63;4952603;28;20416;-87
2022/04/05 06:30:18;;;;;;;20.90;14.20;;;10.20;99.90;;;8.44;100.00;99439.56;4955988;28;20042;-88
2022/04/05 06:32:47;;;;;;;21.83;14.38;;;10.20;99.90;;;8.49;100.00;99437.09;4976804;28;20053;-87
2022/04/05 06:35:16;;;;;;;24.08;16.02;;;10.30;99.90;;;8.51;100.00;99435.88;4963191;28;20043;-87
2022/04/05 06:37:45;;;;;;;22.73;14.88;;;10.30;99.90;;;8.55;100.00;99442.56;4965339;28;20046;-87
2022/04/05 06:40:15;;;;;;;25.40;16.55;;;10.30;99.90;;;8.60;100.00;99441.97;4970781;28;20047;-87
2022/04/05 06:42:44;;;;;;;21.93;14.47;;;10.40;99.90;;;8.66;100.00;99443.06;4971793;28;20053;-87
2022/04/05 06:45:17;;;;;;;21.15;14.45;;;10.40;99.90;;;8.71;100.00;99444.13;4983138;28;20051;-87
2022/04/05 06:47:45;;;;;;;26.55;15.55;;;10.50;99.90;;;8.74;100.00;99440.19;4972922;28;20121;-88
2022/04/05 06:50:14;;;;;;;20.23;14.13;;;10.50;99.90;;;8.75;100.00;99436.44;4970506;28;20061;-86
2022/04/05 06:52:43;;;;;;;18.98;13.90;;;10.50;99.90;;;8.79;100.00;99445.84;4972377;28;20149;-84
2022/04/05 06:55:11;;;;;;;18.23;13.85;;;10.60;99.90;;;8.83;100.00;99444.41;4984136;28;20411;-84
2022/04/05 06:57:39;;;;;;;20.17;13.25;;;10.60;99.90;;;8.84;100.00;99445.25;4972681;28;20059;-84
2022/04/05 07:00:09;;;;;;;19.90;14.05;;;10.60;99.90;;;8.88;100.00;99452.78;4972294;28;20050;-84
2022/04/05 07:02:39;;;;;;;20.10;13.25;;;10.60;99.90;;;8.91;100.00;99446.97;4973125;28;20078;-84
2022/04/05 07:05:09;;;;;;;20.05;13.95;;;10.60;99.90;;;8.95;100.00;99448.25;4977525;28;20121;-84
2022/04/05 07:07:38;;;;;;;18.00;12.90;;;10.70;99.90;;;8.95;100.00;99456.38;4971451;28;20043;-85
2022/04/05 07:10:06;;;;;;;21.30;15.00;;;10.70;99.90;;;8.97;100.00;99458.91;4972048;28;20109;-84
2022/04/05 07:12:34;;;;;;;19.85;13.77;;;10.70;99.90;;;9.00;100.00;99456.63;4972181;28;20039;-85
2022/04/05 07:15:01;;;;;;;25.40;15.98;;;10.70;99.90;;;9.03;100.00;99460.81;4976751;28;20511;-85
2022/04/05 07:17:29;;;;;;;22.00;14.80;;;10.80;99.90;;;9.03;100.00;99449.97;4971129;28;20046;-84
2022/04/05 07:19:57;;;;;;;21.73;15.18;;;10.70;99.90;;;9.06;100.00;99452.25;4971635;28;20122;-85
2022/04/05 07:22:25;;;;;;;21.33;15.48;;;10.70;99.90;;;9.06;100.00;99449.53;4972414;28;20500;-84
2022/04/05 07:24:53;;;;;;;27.48;15.57;;;10.70;99.90;;;9.09;100.00;99461.88;4976024;28;20422;-84
2022/04/05 07:27:20;;;;;;;20.73;15.32;;;10.70;99.90;;;9.11;100.00;99451.66;4975141;28;20038;-84
2022/04/05 07:29:47;;;;;;;20.98;13.15;;;10.80;99.90;;;9.13;100.00;99439.56;4988972;22;20054;-78
2022/04/05 07:32:14;;;;;;;21.17;14.10;;;10.80;99.90;;;9.16;100.00;99443.75;4982856;28;20760;-78
2022/04/05 07:34:42;;;;;;;19.42;12.63;;;10.90;99.90;;;9.17;100.00;99448.13;4987708;28;20042;-78
2022/04/05 07:37:11;;;;;;;16.70;12.57;;;10.90;99.90;;;9.18;100.00;99441.69;4990702;28;20046;-78
2022/04/05 07:39:40;;;;;;;15.90;11.57;;;10.90;99.90;;;9.19;100.00;99451.47;4988924;28;20068;-78
2022/04/05 07:42:08;;;;;;;18.75;12.98;;;10.90;99.90;;;9.21;100.00;99446.69;4990611;28;20109;-78
2022/04/05 07:44:36;;;;;;;20.58;13.75;;;10.90;99.90;;;9.24;100.00;99450.91;4997669;28;20042;-78
2022/04/05 07:47:05;;;;;;;17.25;12.65;;;11.00;99.90;;;9.24;100.00;99448.19;5001541;28;20050;-78
2022/04/05 07:49:32;;;;;;;20.30;14.20;;;11.00;99.90;;;9.24;100.00;99451.72;4985187;28;20054;-78
2022/04/05 07:51:59;;;;;;;23.25;14.52;;;11.00;99.90;;;9.26;100.00;99452.34;4985821;28;20053;-78
2022/04/05 07:54:28;;;;;;;18.33;12.48;;;11.00;99.90;;;9.30;100.00;99450.91;4988968;28;20062;-78
2022/04/05 07:56:55;;;;;;;18.75;11.65;;;11.00;99.90;;;9.30;100.00;99459.06;4990792;28;20566;-78
2022/04/05 07:59:23;;;;;;;15.02;10.70;;;11.00;99.90;;;9.30;100.00;99455.50;4989868;28;20046;-78
2022/04/05 08:01:50;;;;;;;14.27;10.25;;;11.00;99.90;;;9.30;100.00;99458.22;4985924;28;20066;-78
2022/04/05 08:04:17;;;;;;;17.10;11.80;;;11.00;99.90;;;9.34;100.00;99463.03;4990029;28;20062;-78
2022/04/05 08:06:45;;;;;;;19.95;12.50;;;11.10;99.90;;;9.37;100.00;99451.78;4990828;28;20077;-84
2022/04/05 08:09:12;;;;;;;16.85;11.95;;;11.00;99.90;;;9.40;100.00;99453.25;4990218;28;20046;-77
2022/04/05 08:11:41;;;;;;;19.65;13.48;;;11.10;99.90;;;9.41;100.00;99459.53;4986038;28;20515;-79
2022/04/05 08:14:10;;;;;;;20.33;14.38;;;11.10;99.90;;;9.44;100.00;99461.81;4989777;28;20054;-78
2022/04/05 08:16:41;;;;;;;24.30;16.52;;;11.10;99.90;;;9.46;100.00;99459.75;5001467;28;20046;-79
2022/04/05 08:19:09;;;;;;;21.63;16.13;;;11.10;99.90;;;9.46;100.00;99465.16;4984458;28;20117;-79
2022/04/05 08:21:37;;;;;;;27.38;17.05;;;11.10;99.90;;;9.46;100.00;99463.31;4988338;28;20050;-78
2022/04/05 08:24:05;;;;;;;26.27;16.45;;;11.10;99.90;;;9.47;100.00;99456.81;4987832;28;20477;-78
2022/04/05 08:26:32;;;;;;;22.85;15.93;;;11.10;99.90;;;9.53;100.00;99460.59;4989574;28;20050;-78
2022/04/05 08:29:01;;;;;;;23.05;16.90;;;11.10;99.90;;;9.59;100.00;99460.63;4989331;28;20038;-78
2022/04/05 08:31:28;;;;;;;26.10;16.20;;;11.20;99.90;;;9.65;100.00;99464.38;4970124;28;20057;-78
2022/04/05 08:33:56;;;;;;;23.65;15.50;;;11.20;99.90;;;9.72;100.00;99467.97;4992733;28;20048;-78
2022/04/05 08:36:23;;;;;;;25.58;16.27;;;11.20;99.90;;;9.77;100.00;99470.09;4996982;28;20057;-78
2022/04/05 08:38:53;;;;;;;21.60;15.35;;;11.30;99.90;;;9.78;100.00;99469.84;4989338;28;20051;-78
2022/04/05 08:41:25;;;;;;;24.63;16.23;;;11.30;99.90;;;9.78;100.00;99479.91;4985436;28;20069;-78
2022/04/05 08:43:53;;;;;;;23.80;15.75;;;11.30;99.90;;;9.75;100.00;99478.44;4990841;28;20565;-78
2022/04/05 08:46:24;;;;;;;29.48;19.00;;;11.40;99.90;;;9.76;100.00;99482.81;4993583;28;20133;-79
2022/04/05 08:48:53;;;;;;;30.13;19.70;;;11.30;99.90;;;9.81;100.00;99484.09;4991704;28;20035;-79
2022/04/05 08:51:21;;;;;;;27.15;18.65;;;11.40;99.90;;;9.84;100.00;99481.78;4992020;28;20116;-78
2022/04/05 08:53:48;;;;;;;28.30;18.67;;;11.40;99.90;;;9.83;100.00;99480.13;4999814;28;20499;-78
2022/04/05 08:56:16;;;;;;;28.80;18.27;;;11.40;99.90;;;9.84;100.00;99486.38;4992311;28;20085;-78
2022/04/05 08:58:43;;;;;;;26.42;17.38;;;11.40;99.90;;;9.87;100.00;99484.09;4992517;28;20042;-79
2022/04/05 09:01:10;;;;;;;25.00;16.77;;;11.50;99.90;;;9.96;100.00;99487.47;4998177;28;20051;-79
2022/04/05 09:03:39;;;;;;;24.48;15.35;;;11.40;99.90;;;10.06;100.00;99481.63;4992447;28;20125;-78
2022/04/05 09:06:27;;;;;;;25.30;17.38;;;11.50;99.90;;;10.14;100.00;99482.25;5004269;28;20116;-78
2022/04/05 09:09:06;;;;;;;24.73;15.57;;;11.60;99.90;;;10.14;100.00;99478.72;4981663;28;20046;-78
2022/04/05 09:11:35;;;;;;;21.20;15.52;;;11.60;99.90;;;10.12;100.00;99487.06;4980896;28;20510;-78
2022/04/05 09:14:05;;;;;;;24.48;16.50;;;11.60;99.90;;;10.09;100.00;99482.06;4987832;28;20050;-78
2022/04/05 09:16:34;;;;;;;26.92;17.77;;;11.60;99.90;;;10.13;100.00;99485.22;4988107;28;20460;-78
2022/04/05 09:19:12;;;;;;;26.80;17.85;;;11.60;99.90;;;10.14;100.00;99484.16;4988155;28;20038;-79
2022/04/05 09:21:56;;;;;;;24.83;15.90;;;11.60;99.90;;;10.10;100.00;99489.16;4983002;28;20057;-78
2022/04/05 09:24:33;;;;;;;27.35;18.05;;;11.70;99.90;;;10.12;100.00;99492.50;4988938;28;20413;-78
2022/04/05 09:27:01;;;;;;;30.30;16.58;;;11.60;99.90;;;10.10;100.00;99494.59;4987749;28;20565;-78
2022/04/05 09:29:39;;;;;;;25.10;16.45;;;11.60;99.90;;;10.09;100.00;99487.50;4982957;28;20047;-78
2022/04/05 09:32:07;;;;;;;22.17;16.10;;;11.70;99.90;;;10.14;100.00;99495.84;4988407;28;20514;-78
2022/04/05 09:34:49;;;;;;;26.95;15.90;;;11.70;99.90;;;10.14;100.00;99490.41;4982796;28;20059;-79
2022/04/05 09:37:24;;;;;;;25.40;17.17;;;11.70;99.90;;;10.19;100.00;99492.53;4982544;28;20042;-79
2022/04/05 09:39:51;;;;;;;25.50;17.45;;;11.70;99.90;;;10.25;100.00;99497.13;4986974;28;20097;-78
2022/04/05 09:42:18;;;;;;;25.55;17.05;;;11.70;99.90;;;10.28;100.00;99491.28;4981602;28;20050;-78
2022/04/05 09:44:46;;;;;;;24.65;16.67;;;11.80;99.90;;;10.32;100.00;99497.19;4989110;28;20050;-78
2022/04/05 09:47:17;;;;;;;24.65;16.52;;;11.80;99.90;;;10.38;100.00;99501.78;4987554;28;20510;-79
2022/04/05 09:49:50;;;;;;;28.58;16.33;;;11.80;99.90;;;10.41;100.00;99501.34;4983392;28;20047;-77
2022/04/05 09:52:26;;;;;;;25.20;16.42;;;11.80;99.90;;;10.42;100.00;99507.66;4984142;28;20045;-77
2022/04/05 09:54:54;;;;;;;29.23;18.05;;;11.90;99.90;;;10.42;100.00;99505.75;4980123;28;20128;-77
2022/04/05 09:57:30;;;;;;;24.90;16.73;;;11.80;99.90;;;10.47;100.00;99511.41;4981258;28;20408;-77
2022/04/05 10:00:09;;;;;;;24.13;17.40;;;11.90;99.90;;;10.52;100.00;99503.44;4985822;28;20164;-77
2022/04/05 10:03:00;;;;;;;25.23;18.40;;;11.90;99.90;;;10.57;100.00;99511.00;4984954;28;20054;-77
2022/04/05 10:05:30;;;;;;;27.80;18.33;;;12.00;99.90;;;10.63;100.00;99509.31;4986776;28;20114;-78
2022/04/05 10:07:58;;;;;;;30.13;20.30;;;12.00;99.90;;;10.64;100.00;99511.84;4983127;28;20047;-77
2022/04/05 10:10:25;;;;;;;31.05;20.67;;;12.00;99.90;;;10.66;100.00;99514.31;4987858;28;20621;-77
2022/04/05 10:12:53;;;;;;;31.17;20.55;;;12.00;99.90;;;10.69;100.00;99517.47;4986370;28;20046;-77
2022/04/05 10:15:21;;;;;;;30.40;20.70;;;12.10;99.90;;;10.71;100.00;99517.25;4988437;28;20042;-77
2022/04/05 10:17:50;;;;;;;26.00;18.27;;;12.10;99.90;;;10.71;100.00;99509.94;4986009;28;20054;-77
2022/04/05 10:20:19;;;;;;;30.42;17.85;;;12.10;99.90;;;10.71;100.00;99512.66;4977705;28;20038;-77